KICT/ICT METAR and TAF weather

Enter ICAO airport designator
Station Type Date Time Source
KICT METAR 2022/01/26 19:53 UTC NOAA

KICT 261953Z 19013KT 10SM SCT028 OVC060 M01/M18 A3029 RMK AO2 PRESFR SLP274 T10111178


Station Type Date Time Source
KICT Decoded METAR 2022/01/26 19:53 UTC NOAA

WICHITA MID-CONTINENT AIRPORT , KS, United States (KICT) 37-39N 97-26W 408M
Jan 26, 2022 - 02:53 PM EST / 2022.01.26 1953 UTC
Wind: from the S (190 degrees) at 15 MPH (13 KT):0
Visibility: 10 mile(s):0
Sky conditions: overcast
Temperature: 30.0 F (-1.1 C)
Windchill: 19 F (-7 C):1
Dew Point: -0.0 F (-17.8 C)
Relative Humidity: 26%
Pressure (altimeter): 30.29 in. Hg (1025 hPa)
Pressure tendency: falling rapidly
ob: KICT 261953Z 19013KT 10SM SCT028 OVC060 M01/M18 A3029 RMK AO2 PRESFR SLP274 T10111178
cycle: 20

Station Type Date Time Source
KICT TAF 2022/01/26 18:40 UTC NOAA

TAF KICT 261738Z 2618/2718 18008KT P6SM BKN060
FM270600 20010KT P6SM SCT008 BKN020
FM271400 29006KT P6SM SCT008 BKN035
FM271600 32007KT P6SM SCT120

Example: see airport list